sensor_id;sensor_type;location;lat;lon;timestamp;temperature;humidity
45765;DHT22;31474;45.332;10.230;2023-05-07T00:01:56;20.50;99.90
45765;DHT22;31474;45.332;10.230;2023-05-07T00:04:22;20.50;99.90
45765;DHT22;31474;45.332;10.230;2023-05-07T00:06:47;20.60;99.90
45765;DHT22;31474;45.332;10.230;2023-05-07T00:09:13;20.50;99.90
45765;DHT22;31474;45.332;10.230;2023-05-07T00:11:39;20.60;99.90
45765;DHT22;31474;45.332;10.230;2023-05-07T00:14:05;20.40;99.90
45765;DHT22;31474;45.332;10.230;2023-05-07T00:16:31;20.30;99.90
45765;DHT22;31474;45.332;10.230;2023-05-07T00:18:56;20.20;99.90
45765;DHT22;31474;45.332;10.230;2023-05-07T00:21:22;20.20;99.90
45765;DHT22;31474;45.332;10.230;2023-05-07T00:23:48;20.10;99.90
45765;DHT22;31474;45.332;10.230;2023-05-07T00:26:13;20.00;99.90
45765;DHT22;31474;45.332;10.230;2023-05-07T00:28:39;20.20;99.90
45765;DHT22;31474;45.332;10.230;2023-05-07T00:31:05;20.20;99.90
45765;DHT22;31474;45.332;10.230;2023-05-07T00:33:30;20.30;99.90
45765;DHT22;31474;45.332;10.230;2023-05-07T00:35:56;20.20;99.90
45765;DHT22;31474;45.332;10.230;2023-05-07T00:38:21;20.10;99.90
45765;DHT22;31474;45.332;10.230;2023-05-07T00:40:47;20.10;99.90
45765;DHT22;31474;45.332;10.230;2023-05-07T00:43:13;20.10;99.90
45765;DHT22;31474;45.332;10.230;2023-05-07T00:45:38;20.20;99.90
45765;DHT22;31474;45.332;10.230;2023-05-07T00:48:04;20.20;99.90
45765;DHT22;31474;45.332;10.230;2023-05-07T00:50:31;20.20;99.90
45765;DHT22;31474;45.332;10.230;2023-05-07T00:52:57;20.20;99.90
45765;DHT22;31474;45.332;10.230;2023-05-07T00:55:23;20.20;99.90
45765;DHT22;31474;45.332;10.230;2023-05-07T00:57:50;20.20;99.90
45765;DHT22;31474;45.332;10.230;2023-05-07T01:00:17;20.30;99.90
45765;DHT22;31474;45.332;10.230;2023-05-07T01:02:43;20.20;99.90
45765;DHT22;31474;45.332;10.230;2023-05-07T01:05:12;20.20;99.90
45765;DHT22;31474;45.332;10.230;2023-05-07T01:07:40;20.20;99.90
45765;DHT22;31474;45.332;10.230;2023-05-07T01:10:06;20.20;99.90
45765;DHT22;31474;45.332;10.230;2023-05-07T01:12:34;20.20;99.90
45765;DHT22;31474;45.332;10.230;2023-05-07T01:15:01;20.20;99.90
45765;DHT22;31474;45.332;10.230;2023-05-07T01:17:27;20.20;99.90
45765;DHT22;31474;45.332;10.230;2023-05-07T01:19:53;20.10;99.90
45765;DHT22;31474;45.332;10.230;2023-05-07T01:22:34;20.10;99.90
45765;DHT22;31474;45.332;10.230;2023-05-07T01:25:03;20.10;99.90
45765;DHT22;31474;45.332;10.230;2023-05-07T01:27:29;20.00;99.90
45765;DHT22;31474;45.332;10.230;2023-05-07T01:29:54;20.00;99.90
45765;DHT22;31474;45.332;10.230;2023-05-07T01:32:43;20.00;99.90
45765;DHT22;31474;45.332;10.230;2023-05-07T01:35:11;20.00;99.90
45765;DHT22;31474;45.332;10.230;2023-05-07T01:37:38;20.10;99.90
45765;DHT22;31474;45.332;10.230;2023-05-07T01:40:05;20.10;99.90
45765;DHT22;31474;45.332;10.230;2023-05-07T01:42:32;20.10;99.90
45765;DHT22;31474;45.332;10.230;2023-05-07T01:44:58;20.20;99.90
45765;DHT22;31474;45.332;10.230;2023-05-07T01:47:25;20.20;99.90
45765;DHT22;31474;45.332;10.230;2023-05-07T01:49:51;20.20;99.90
45765;DHT22;31474;45.332;10.230;2023-05-07T01:52:17;20.20;99.90
45765;DHT22;31474;45.332;10.230;2023-05-07T01:54:42;20.20;99.90
45765;DHT22;31474;45.332;10.230;2023-05-07T01:57:08;20.20;99.90
45765;DHT22;31474;45.332;10.230;2023-05-07T01:59:34;20.20;99.90
45765;DHT22;31474;45.332;10.230;2023-05-07T02:01:59;20.10;99.90
45765;DHT22;31474;45.332;10.230;2023-05-07T02:04:26;20.10;99.90
45765;DHT22;31474;45.332;10.230;2023-05-07T02:06:51;20.10;99.90
45765;DHT22;31474;45.332;10.230;2023-05-07T02:09:18;20.00;99.90
45765;DHT22;31474;45.332;10.230;2023-05-07T02:11:44;20.10;99.90
45765;DHT22;31474;45.332;10.230;2023-05-07T02:14:09;20.00;99.90
45765;DHT22;31474;45.332;10.230;2023-05-07T02:16:35;20.00;99.90
45765;DHT22;31474;45.332;10.230;2023-05-07T02:19:01;20.00;99.90
45765;DHT22;31474;45.332;10.230;2023-05-07T02:21:26;20.00;99.90
45765;DHT22;31474;45.332;10.230;2023-05-07T02:23:52;20.00;99.90
45765;DHT22;31474;45.332;10.230;2023-05-07T02:26:18;19.90;99.90
45765;DHT22;31474;45.332;10.230;2023-05-07T02:28:43;20.00;99.90
45765;DHT22;31474;45.332;10.230;2023-05-07T02:31:09;20.00;99.90
45765;DHT22;31474;45.332;10.230;2023-05-07T02:33:35;20.00;99.90
45765;DHT22;31474;45.332;10.230;2023-05-07T02:36:11;20.00;99.90
45765;DHT22;31474;45.332;10.230;2023-05-07T02:38:38;20.00;99.90
45765;DHT22;31474;45.332;10.230;2023-05-07T02:41:04;20.10;99.90
45765;DHT22;31474;45.332;10.230;2023-05-07T02:43:29;20.00;99.90
45765;DHT22;31474;45.332;10.230;2023-05-07T02:46:21;20.00;99.90
45765;DHT22;31474;45.332;10.230;2023-05-07T02:48:47;20.00;99.90
45765;DHT22;31474;45.332;10.230;2023-05-07T02:51:13;20.10;99.90
45765;DHT22;31474;45.332;10.230;2023-05-07T02:53:39;20.10;99.90
45765;DHT22;31474;45.332;10.230;2023-05-07T02:56:05;20.10;99.90
45765;DHT22;31474;45.332;10.230;2023-05-07T02:58:31;20.10;99.90
45765;DHT22;31474;45.332;10.230;2023-05-07T03:00:57;20.20;99.90
45765;DHT22;31474;45.332;10.230;2023-05-07T03:03:23;20.20;99.90
45765;DHT22;31474;45.332;10.230;2023-05-07T03:05:48;20.20;99.90
45765;DHT22;31474;45.332;10.230;2023-05-07T03:08:14;20.30;99.90
45765;DHT22;31474;45.332;10.230;2023-05-07T03:10:40;20.20;99.90
45765;DHT22;31474;45.332;10.230;2023-05-07T03:13:05;20.20;99.90
45765;DHT22;31474;45.332;10.230;2023-05-07T03:15:31;20.20;99.90
45765;DHT22;31474;45.332;10.230;2023-05-07T03:17:57;20.20;99.90
45765;DHT22;31474;45.332;10.230;2023-05-07T03:20:22;20.20;99.90
45765;DHT22;31474;45.332;10.230;2023-05-07T03:22:48;20.10;99.90
45765;DHT22;31474;45.332;10.230;2023-05-07T03:25:14;20.10;99.90
45765;DHT22;31474;45.332;10.230;2023-05-07T03:27:40;20.00;99.90
45765;DHT22;31474;45.332;10.230;2023-05-07T03:30:07;20.00;99.90
45765;DHT22;31474;45.332;10.230;2023-05-07T03:32:34;20.00;99.90
45765;DHT22;31474;45.332;10.230;2023-05-07T03:35:01;19.90;99.90
45765;DHT22;31474;45.332;10.230;2023-05-07T03:37:26;20.00;99.90
45765;DHT22;31474;45.332;10.230;2023-05-07T03:39:52;20.00;99.90
45765;DHT22;31474;45.332;10.230;2023-05-07T03:42:17;20.00;99.90
45765;DHT22;31474;45.332;10.230;2023-05-07T03:44:43;20.00;99.90
45765;DHT22;31474;45.332;10.230;2023-05-07T03:47:09;20.00;99.90
45765;DHT22;31474;45.332;10.230;2023-05-07T03:49:35;19.90;99.90
45765;DHT22;31474;45.332;10.230;2023-05-07T03:52:01;19.80;99.90
45765;DHT22;31474;45.332;10.230;2023-05-07T03:54:27;19.80;99.90
45765;DHT22;31474;45.332;10.230;2023-05-07T03:56:52;19.70;99.90
45765;DHT22;31474;45.332;10.230;2023-05-07T03:59:18;19.70;99.90
45765;DHT22;31474;45.332;10.230;2023-05-07T04:01:43;19.70;99.90
45765;DHT22;31474;45.332;10.230;2023-05-07T04:04:10;19.70;99.90
45765;DHT22;31474;45.332;10.230;2023-05-07T04:06:35;19.70;99.90
45765;DHT22;31474;45.332;10.230;2023-05-07T04:09:01;19.70;99.90
45765;DHT22;31474;45.332;10.230;2023-05-07T04:11:27;19.70;99.90
45765;DHT22;31474;45.332;10.230;2023-05-07T04:13:52;19.70;99.90
45765;DHT22;31474;45.332;10.230;2023-05-07T04:16:18;19.70;99.90
45765;DHT22;31474;45.332;10.230;2023-05-07T04:18:43;19.60;99.90
45765;DHT22;31474;45.332;10.230;2023-05-07T04:21:20;19.60;99.90
45765;DHT22;31474;45.332;10.230;2023-05-07T04:23:46;19.60;99.90
45765;DHT22;31474;45.332;10.230;2023-05-07T04:26:12;19.70;99.90
45765;DHT22;31474;45.332;10.230;2023-05-07T04:28:38;19.60;99.90
45765;DHT22;31474;45.332;10.230;2023-05-07T04:31:04;19.70;99.90
45765;DHT22;31474;45.332;10.230;2023-05-07T04:33:30;19.60;99.90
45765;DHT22;31474;45.332;10.230;2023-05-07T04:35:56;19.60;99.90
45765;DHT22;31474;45.332;10.230;2023-05-07T04:38:22;19.70;99.90
45765;DHT22;31474;45.332;10.230;2023-05-07T04:40:49;19.70;99.90
45765;DHT22;31474;45.332;10.230;2023-05-07T04:43:14;19.80;99.90
45765;DHT22;31474;45.332;10.230;2023-05-07T04:45:41;19.80;99.90
45765;DHT22;31474;45.332;10.230;2023-05-07T04:48:08;19.80;99.90
45765;DHT22;31474;45.332;10.230;2023-05-07T04:50:34;19.90;99.90
45765;DHT22;31474;45.332;10.230;2023-05-07T04:52:59;19.90;99.90
45765;DHT22;31474;45.332;10.230;2023-05-07T04:55:25;19.90;99.90
45765;DHT22;31474;45.332;10.230;2023-05-07T04:57:52;19.90;99.90
45765;DHT22;31474;45.332;10.230;2023-05-07T05:00:18;19.90;99.90
45765;DHT22;31474;45.332;10.230;2023-05-07T05:02:45;20.00;99.90
45765;DHT22;31474;45.332;10.230;2023-05-07T05:05:11;20.10;99.90
45765;DHT22;31474;45.332;10.230;2023-05-07T05:07:37;20.10;99.90
45765;DHT22;31474;45.332;10.230;2023-05-07T05:10:04;20.30;99.90
45765;DHT22;31474;45.332;10.230;2023-05-07T05:12:31;20.40;99.90
45765;DHT22;31474;45.332;10.230;2023-05-07T05:14:56;20.50;99.90
45765;DHT22;31474;45.332;10.230;2023-05-07T05:17:23;20.60;99.90
45765;DHT22;31474;45.332;10.230;2023-05-07T05:19:48;20.70;99.90
45765;DHT22;31474;45.332;10.230;2023-05-07T05:22:14;20.70;99.90
45765;DHT22;31474;45.332;10.230;2023-05-07T05:24:40;20.60;99.90
45765;DHT22;31474;45.332;10.230;2023-05-07T05:27:06;20.60;99.90
45765;DHT22;31474;45.332;10.230;2023-05-07T05:29:31;20.60;99.90
45765;DHT22;31474;45.332;10.230;2023-05-07T05:31:57;20.60;99.90
45765;DHT22;31474;45.332;10.230;2023-05-07T05:34:23;20.60;99.90
45765;DHT22;31474;45.332;10.230;2023-05-07T05:36:48;20.70;99.90
45765;DHT22;31474;45.332;10.230;2023-05-07T05:39:14;20.80;99.90
45765;DHT22;31474;45.332;10.230;2023-05-07T05:41:40;20.90;99.90
45765;DHT22;31474;45.332;10.230;2023-05-07T05:44:06;20.90;99.90
45765;DHT22;31474;45.332;10.230;2023-05-07T05:46:31;21.00;99.90
45765;DHT22;31474;45.332;10.230;2023-05-07T05:48:57;21.00;99.90
45765;DHT22;31474;45.332;10.230;2023-05-07T05:51:23;21.10;99.90
45765;DHT22;31474;45.332;10.230;2023-05-07T05:53:48;21.20;99.90
45765;DHT22;31474;45.332;10.230;2023-05-07T05:56:15;21.30;99.90
45765;DHT22;31474;45.332;10.230;2023-05-07T05:58:41;21.30;99.90
45765;DHT22;31474;45.332;10.230;2023-05-07T06:01:07;21.30;99.90
45765;DHT22;31474;45.332;10.230;2023-05-07T06:03:32;21.40;99.90
45765;DHT22;31474;45.332;10.230;2023-05-07T06:05:58;21.40;99.90
45765;DHT22;31474;45.332;10.230;2023-05-07T06:08:25;21.40;99.90
45765;DHT22;31474;45.332;10.230;2023-05-07T06:10:51;21.50;99.90
45765;DHT22;31474;45.332;10.230;2023-05-07T06:13:17;21.50;99.90
45765;DHT22;31474;45.332;10.230;2023-05-07T06:15:42;21.50;99.90
45765;DHT22;31474;45.332;10.230;2023-05-07T06:18:08;21.50;99.90
45765;DHT22;31474;45.332;10.230;2023-05-07T06:20:33;21.40;99.90
45765;DHT22;31474;45.332;10.230;2023-05-07T06:22:59;21.40;99.90
45765;DHT22;31474;45.332;10.230;2023-05-07T06:25:25;21.40;99.90
45765;DHT22;31474;45.332;10.230;2023-05-07T06:27:50;21.40;99.90
45765;DHT22;31474;45.332;10.230;2023-05-07T06:30:16;21.40;99.90
45765;DHT22;31474;45.332;10.230;2023-05-07T06:32:42;21.40;99.90
45765;DHT22;31474;45.332;10.230;2023-05-07T06:35:08;21.40;99.90
45765;DHT22;31474;45.332;10.230;2023-05-07T06:37:33;21.30;99.90
45765;DHT22;31474;45.332;10.230;2023-05-07T06:39:59;21.30;99.90
45765;DHT22;31474;45.332;10.230;2023-05-07T06:42:24;21.20;99.90
45765;DHT22;31474;45.332;10.230;2023-05-07T06:44:50;21.20;99.90
45765;DHT22;31474;45.332;10.230;2023-05-07T06:47:16;21.10;99.90
45765;DHT22;31474;45.332;10.230;2023-05-07T06:49:41;21.10;99.90
45765;DHT22;31474;45.332;10.230;2023-05-07T06:52:07;21.10;99.90
45765;DHT22;31474;45.332;10.230;2023-05-07T06:54:33;21.00;99.90
45765;DHT22;31474;45.332;10.230;2023-05-07T06:56:58;21.00;99.90
45765;DHT22;31474;45.332;10.230;2023-05-07T06:59:24;21.00;99.90
45765;DHT22;31474;45.332;10.230;2023-05-07T07:01:50;21.00;99.90
45765;DHT22;31474;45.332;10.230;2023-05-07T07:04:15;20.90;99.90
45765;DHT22;31474;45.332;10.230;2023-05-07T07:06:41;20.90;99.90
45765;DHT22;31474;45.332;10.230;2023-05-07T07:09:07;20.90;99.90
45765;DHT22;31474;45.332;10.230;2023-05-07T07:11:32;21.00;99.90
45765;DHT22;31474;45.332;10.230;2023-05-07T07:13:58;21.10;99.90
45765;DHT22;31474;45.332;10.230;2023-05-07T07:16:24;21.30;99.90
45765;DHT22;31474;45.332;10.230;2023-05-07T07:18:50;21.60;99.90
45765;DHT22;31474;45.332;10.230;2023-05-07T07:21:16;21.80;99.90
45765;DHT22;31474;45.332;10.230;2023-05-07T07:23:41;22.00;99.90
45765;DHT22;31474;45.332;10.230;2023-05-07T07:26:07;22.10;99.90
45765;DHT22;31474;45.332;10.230;2023-05-07T07:28:33;22.20;99.90
45765;DHT22;31474;45.332;10.230;2023-05-07T07:30:58;22.40;99.90
45765;DHT22;31474;45.332;10.230;2023-05-07T07:33:24;22.70;99.90
45765;DHT22;31474;45.332;10.230;2023-05-07T07:35:49;22.70;99.10
45765;DHT22;31474;45.332;10.230;2023-05-07T07:38:15;22.80;99.40
45765;DHT22;31474;45.332;10.230;2023-05-07T07:40:41;22.90;99.50
45765;DHT22;31474;45.332;10.230;2023-05-07T07:43:06;23.10;99.30
45765;DHT22;31474;45.332;10.230;2023-05-07T07:45:32;23.20;98.20
45765;DHT22;31474;45.332;10.230;2023-05-07T07:47:58;23.30;97.40
45765;DHT22;31474;45.332;10.230;2023-05-07T07:50:23;23.40;97.70
45765;DHT22;31474;45.332;10.230;2023-05-07T07:52:49;23.40;97.40
45765;DHT22;31474;45.332;10.230;2023-05-07T07:55:15;23.50;97.30
45765;DHT22;31474;45.332;10.230;2023-05-07T07:57:46;23.60;97.70
45765;DHT22;31474;45.332;10.230;2023-05-07T08:00:12;23.60;97.60
45765;DHT22;31474;45.332;10.230;2023-05-07T08:02:38;23.60;97.50
45765;DHT22;31474;45.332;10.230;2023-05-07T08:05:03;23.70;97.70
45765;DHT22;31474;45.332;10.230;2023-05-07T08:07:29;23.70;97.50
45765;DHT22;31474;45.332;10.230;2023-05-07T08:09:55;23.80;96.90
45765;DHT22;31474;45.332;10.230;2023-05-07T08:12:21;23.80;97.10
45765;DHT22;31474;45.332;10.230;2023-05-07T08:14:47;23.90;97.10
45765;DHT22;31474;45.332;10.230;2023-05-07T08:17:12;23.90;96.50
45765;DHT22;31474;45.332;10.230;2023-05-07T08:19:41;24.00;96.50
45765;DHT22;31474;45.332;10.230;2023-05-07T08:22:06;24.10;96.80
45765;DHT22;31474;45.332;10.230;2023-05-07T08:24:32;24.20;96.40
45765;DHT22;31474;45.332;10.230;2023-05-07T08:26:58;24.30;96.40
45765;DHT22;31474;45.332;10.230;2023-05-07T08:29:23;24.40;96.90
45765;DHT22;31474;45.332;10.230;2023-05-07T08:31:49;24.40;96.80
45765;DHT22;31474;45.332;10.230;2023-05-07T08:34:15;24.60;97.10
45765;DHT22;31474;45.332;10.230;2023-05-07T08:36:40;24.70;96.70
45765;DHT22;31474;45.332;10.230;2023-05-07T08:39:07;24.70;96.90
45765;DHT22;31474;45.332;10.230;2023-05-07T08:41:33;24.90;96.70
45765;DHT22;31474;45.332;10.230;2023-05-07T08:43:59;25.00;96.70
45765;DHT22;31474;45.332;10.230;2023-05-07T08:46:31;25.10;96.90
45765;DHT22;31474;45.332;10.230;2023-05-07T08:48:57;25.20;96.30
45765;DHT22;31474;45.332;10.230;2023-05-07T08:51:22;25.20;96.00
45765;DHT22;31474;45.332;10.230;2023-05-07T08:53:49;25.20;96.40
45765;DHT22;31474;45.332;10.230;2023-05-07T08:56:15;25.30;96.20
45765;DHT22;31474;45.332;10.230;2023-05-07T08:58:42;25.10;96.00
45765;DHT22;31474;45.332;10.230;2023-05-07T09:01:11;24.80;95.80
45765;DHT22;31474;45.332;10.230;2023-05-07T09:03:38;25.00;96.40
45765;DHT22;31474;45.332;10.230;2023-05-07T09:06:04;25.00;96.80
45765;DHT22;31474;45.332;10.230;2023-05-07T09:08:32;25.30;96.80
45765;DHT22;31474;45.332;10.230;2023-05-07T09:10:58;25.30;95.40
45765;DHT22;31474;45.332;10.230;2023-05-07T09:13:24;25.30;96.50
45765;DHT22;31474;45.332;10.230;2023-05-07T09:15:50;25.50;95.80
45765;DHT22;31474;45.332;10.230;2023-05-07T09:18:15;25.60;96.20
45765;DHT22;31474;45.332;10.230;2023-05-07T09:20:41;25.60;95.10
45765;DHT22;31474;45.332;10.230;2023-05-07T09:23:07;25.40;95.40
45765;DHT22;31474;45.332;10.230;2023-05-07T09:25:34;25.20;95.30
45765;DHT22;31474;45.332;10.230;2023-05-07T09:28:01;25.00;96.20
45765;DHT22;31474;45.332;10.230;2023-05-07T09:30:28;25.00;96.40
45765;DHT22;31474;45.332;10.230;2023-05-07T09:32:55;25.30;97.10
45765;DHT22;31474;45.332;10.230;2023-05-07T09:35:21;25.50;97.10
45765;DHT22;31474;45.332;10.230;2023-05-07T09:37:49;25.80;96.80
45765;DHT22;31474;45.332;10.230;2023-05-07T09:40:41;26.10;96.50
45765;DHT22;31474;45.332;10.230;2023-05-07T09:43:11;26.30;95.30
45765;DHT22;31474;45.332;10.230;2023-05-07T09:45:38;26.50;96.00
45765;DHT22;31474;45.332;10.230;2023-05-07T09:48:05;26.60;96.30
45765;DHT22;31474;45.332;10.230;2023-05-07T09:50:37;26.70;95.30
45765;DHT22;31474;45.332;10.230;2023-05-07T09:53:06;26.50;95.20
45765;DHT22;31474;45.332;10.230;2023-05-07T09:55:32;26.50;95.50
45765;DHT22;31474;45.332;10.230;2023-05-07T09:57:58;26.60;94.20
45765;DHT22;31474;45.332;10.230;2023-05-07T10:00:25;26.60;95.50
45765;DHT22;31474;45.332;10.230;2023-05-07T10:02:52;26.60;94.90
45765;DHT22;31474;45.332;10.230;2023-05-07T10:05:19;26.70;95.80
45765;DHT22;31474;45.332;10.230;2023-05-07T10:07:48;26.70;95.90
45765;DHT22;31474;45.332;10.230;2023-05-07T10:10:14;26.70;95.00
45765;DHT22;31474;45.332;10.230;2023-05-07T10:12:41;26.70;94.50
45765;DHT22;31474;45.332;10.230;2023-05-07T10:15:11;26.80;94.80
45765;DHT22;31474;45.332;10.230;2023-05-07T10:17:38;26.80;94.80
45765;DHT22;31474;45.332;10.230;2023-05-07T10:20:06;26.90;95.20
45765;DHT22;31474;45.332;10.230;2023-05-07T10:22:38;27.00;95.20
45765;DHT22;31474;45.332;10.230;2023-05-07T10:25:09;27.10;94.40
45765;DHT22;31474;45.332;10.230;2023-05-07T10:27:39;27.20;95.00
45765;DHT22;31474;45.332;10.230;2023-05-07T10:32:59;27.10;95.00
45765;DHT22;31474;45.332;10.230;2023-05-07T10:35:32;27.00;94.90
45765;DHT22;31474;45.332;10.230;2023-05-07T10:38:01;26.90;94.50
45765;DHT22;31474;45.332;10.230;2023-05-07T10:40:27;27.00;95.20
45765;DHT22;31474;45.332;10.230;2023-05-07T10:42:57;27.10;94.90
45765;DHT22;31474;45.332;10.230;2023-05-07T10:45:25;27.20;94.90
45765;DHT22;31474;45.332;10.230;2023-05-07T10:48:13;27.10;94.00
45765;DHT22;31474;45.332;10.230;2023-05-07T10:50:40;26.90;92.90
45765;DHT22;31474;45.332;10.230;2023-05-07T10:55:47;27.00;93.90
45765;DHT22;31474;45.332;10.230;2023-05-07T11:01:02;27.10;93.50
45765;DHT22;31474;45.332;10.230;2023-05-07T11:03:28;27.20;94.10
45765;DHT22;31474;45.332;10.230;2023-05-07T11:06:13;27.20;94.60
45765;DHT22;31474;45.332;10.230;2023-05-07T11:08:58;27.20;93.50
45765;DHT22;31474;45.332;10.230;2023-05-07T11:11:47;27.20;93.30
45765;DHT22;31474;45.332;10.230;2023-05-07T11:14:14;27.10;93.30
45765;DHT22;31474;45.332;10.230;2023-05-07T11:17:03;27.10;94.20
45765;DHT22;31474;45.332;10.230;2023-05-07T11:19:51;26.90;93.60
45765;DHT22;31474;45.332;10.230;2023-05-07T11:25:04;26.90;93.10
45765;DHT22;31474;45.332;10.230;2023-05-07T11:27:31;26.80;93.20
45765;DHT22;31474;45.332;10.230;2023-05-07T11:29:57;26.80;94.10
45765;DHT22;31474;45.332;10.230;2023-05-07T11:32:24;27.00;94.00
45765;DHT22;31474;45.332;10.230;2023-05-07T11:34:53;27.10;94.00
45765;DHT22;31474;45.332;10.230;2023-05-07T11:37:19;27.00;93.30
45765;DHT22;31474;45.332;10.230;2023-05-07T11:39:46;27.00;93.90
45765;DHT22;31474;45.332;10.230;2023-05-07T11:42:32;27.00;93.90
45765;DHT22;31474;45.332;10.230;2023-05-07T11:44:58;27.10;94.00
45765;DHT22;31474;45.332;10.230;2023-05-07T11:47:24;27.20;94.40
45765;DHT22;31474;45.332;10.230;2023-05-07T11:49:54;27.20;93.20
45765;DHT22;31474;45.332;10.230;2023-05-07T11:52:21;27.20;94.40
45765;DHT22;31474;45.332;10.230;2023-05-07T11:54:56;27.30;94.40
45765;DHT22;31474;45.332;10.230;2023-05-07T11:57:26;27.40;93.20
45765;DHT22;31474;45.332;10.230;2023-05-07T11:59:55;27.20;92.60
45765;DHT22;31474;45.332;10.230;2023-05-07T12:02:21;27.20;93.00
45765;DHT22;31474;45.332;10.230;2023-05-07T12:04:47;27.10;93.50
45765;DHT22;31474;45.332;10.230;2023-05-07T12:07:14;27.10;93.60
45765;DHT22;31474;45.332;10.230;2023-05-07T12:09:41;27.10;93.20
45765;DHT22;31474;45.332;10.230;2023-05-07T12:12:07;27.20;93.30
45765;DHT22;31474;45.332;10.230;2023-05-07T12:14:37;27.10;92.90
45765;DHT22;31474;45.332;10.230;2023-05-07T12:17:03;27.00;93.10
45765;DHT22;31474;45.332;10.230;2023-05-07T12:19:30;27.00;93.20
45765;DHT22;31474;45.332;10.230;2023-05-07T12:21:56;26.90;93.00
45765;DHT22;31474;45.332;10.230;2023-05-07T12:24:22;26.80;93.10
45765;DHT22;31474;45.332;10.230;2023-05-07T12:26:48;26.90;93.20
45765;DHT22;31474;45.332;10.230;2023-05-07T12:29:14;26.90;93.20
45765;DHT22;31474;45.332;10.230;2023-05-07T12:31:43;27.00;93.60
45765;DHT22;31474;45.332;10.230;2023-05-07T12:34:11;27.10;93.40
45765;DHT22;31474;45.332;10.230;2023-05-07T12:36:40;27.00;92.20
45765;DHT22;31474;45.332;10.230;2023-05-07T12:39:09;26.90;92.70
45765;DHT22;31474;45.332;10.230;2023-05-07T12:41:54;26.70;92.70
45765;DHT22;31474;45.332;10.230;2023-05-07T12:44:23;26.80;93.30
45765;DHT22;31474;45.332;10.230;2023-05-07T12:46:50;26.90;93.40
45765;DHT22;31474;45.332;10.230;2023-05-07T12:49:16;27.10;93.50
45765;DHT22;31474;45.332;10.230;2023-05-07T12:51:43;27.10;92.90
45765;DHT22;31474;45.332;10.230;2023-05-07T12:54:09;27.30;93.30
45765;DHT22;31474;45.332;10.230;2023-05-07T12:56:39;27.30;93.20
45765;DHT22;31474;45.332;10.230;2023-05-07T12:59:05;27.30;92.50
45765;DHT22;31474;45.332;10.230;2023-05-07T13:01:33;27.30;93.40
45765;DHT22;31474;45.332;10.230;2023-05-07T13:04:03;27.50;93.20
45765;DHT22;31474;45.332;10.230;2023-05-07T13:06:30;27.40;91.00
45765;DHT22;31474;45.332;10.230;2023-05-07T13:08:56;27.40;92.70
45765;DHT22;31474;45.332;10.230;2023-05-07T13:11:22;27.40;93.10
45765;DHT22;31474;45.332;10.230;2023-05-07T13:13:48;27.50;91.90
45765;DHT22;31474;45.332;10.230;2023-05-07T13:16:14;27.40;92.70
45765;DHT22;31474;45.332;10.230;2023-05-07T13:18:40;27.40;92.40
45765;DHT22;31474;45.332;10.230;2023-05-07T13:21:06;27.50;92.50
45765;DHT22;31474;45.332;10.230;2023-05-07T13:23:31;27.50;91.90
45765;DHT22;31474;45.332;10.230;2023-05-07T13:25:57;27.60;92.50
45765;DHT22;31474;45.332;10.230;2023-05-07T13:28:24;27.70;92.50
45765;DHT22;31474;45.332;10.230;2023-05-07T13:30:49;27.70;91.90
45765;DHT22;31474;45.332;10.230;2023-05-07T13:33:17;27.70;91.90
45765;DHT22;31474;45.332;10.230;2023-05-07T13:35:43;27.70;91.60
45765;DHT22;31474;45.332;10.230;2023-05-07T13:38:08;27.60;91.70
45765;DHT22;31474;45.332;10.230;2023-05-07T13:40:34;27.60;91.40
45765;DHT22;31474;45.332;10.230;2023-05-07T13:43:00;27.50;91.70
45765;DHT22;31474;45.332;10.230;2023-05-07T13:45:28;27.40;91.70
45765;DHT22;31474;45.332;10.230;2023-05-07T13:47:55;27.40;91.70
45765;DHT22;31474;45.332;10.230;2023-05-07T13:50:21;27.40;91.90
45765;DHT22;31474;45.332;10.230;2023-05-07T13:52:47;27.40;91.70
45765;DHT22;31474;45.332;10.230;2023-05-07T13:55:19;27.40;92.20
45765;DHT22;31474;45.332;10.230;2023-05-07T13:57:46;27.50;91.90
45765;DHT22;31474;45.332;10.230;2023-05-07T14:00:13;27.50;91.90
45765;DHT22;31474;45.332;10.230;2023-05-07T14:02:39;27.60;92.20
45765;DHT22;31474;45.332;10.230;2023-05-07T14:05:05;27.60;92.60
45765;DHT22;31474;45.332;10.230;2023-05-07T14:07:31;27.60;92.10
45765;DHT22;31474;45.332;10.230;2023-05-07T14:09:57;27.40;92.00
45765;DHT22;31474;45.332;10.230;2023-05-07T14:12:22;27.40;92.10
45765;DHT22;31474;45.332;10.230;2023-05-07T14:14:48;27.40;91.70
45765;DHT22;31474;45.332;10.230;2023-05-07T14:17:18;27.40;92.10
45765;DHT22;31474;45.332;10.230;2023-05-07T14:19:44;27.40;92.10
45765;DHT22;31474;45.332;10.230;2023-05-07T14:22:10;27.40;91.50
45765;DHT22;31474;45.332;10.230;2023-05-07T14:24:36;27.30;92.00
45765;DHT22;31474;45.332;10.230;2023-05-07T14:27:01;27.20;92.00
45765;DHT22;31474;45.332;10.230;2023-05-07T14:29:27;27.10;91.70
45765;DHT22;31474;45.332;10.230;2023-05-07T14:31:53;27.10;91.90
45765;DHT22;31474;45.332;10.230;2023-05-07T14:34:19;27.10;92.20
45765;DHT22;31474;45.332;10.230;2023-05-07T14:36:44;27.10;92.10
45765;DHT22;31474;45.332;10.230;2023-05-07T14:39:10;27.10;91.90
45765;DHT22;31474;45.332;10.230;2023-05-07T14:41:36;27.10;92.30
45765;DHT22;31474;45.332;10.230;2023-05-07T14:44:01;27.20;92.10
45765;DHT22;31474;45.332;10.230;2023-05-07T14:46:29;27.30;92.10
45765;DHT22;31474;45.332;10.230;2023-05-07T14:48:56;27.30;91.80
45765;DHT22;31474;45.332;10.230;2023-05-07T14:51:21;27.30;91.30
45765;DHT22;31474;45.332;10.230;2023-05-07T14:53:47;27.20;91.50
45765;DHT22;31474;45.332;10.230;2023-05-07T14:56:13;27.00;91.10
45765;DHT22;31474;45.332;10.230;2023-05-07T14:58:38;26.90;91.70
45765;DHT22;31474;45.332;10.230;2023-05-07T15:01:04;26.90;91.60
45765;DHT22;31474;45.332;10.230;2023-05-07T15:03:30;26.90;91.40
45765;DHT22;31474;45.332;10.230;2023-05-07T15:05:56;27.00;92.00
45765;DHT22;31474;45.332;10.230;2023-05-07T15:08:21;27.00;91.50
45765;DHT22;31474;45.332;10.230;2023-05-07T15:10:47;27.00;91.90
45765;DHT22;31474;45.332;10.230;2023-05-07T15:13:13;27.00;91.90
45765;DHT22;31474;45.332;10.230;2023-05-07T15:15:41;27.00;92.10
45765;DHT22;31474;45.332;10.230;2023-05-07T15:18:06;27.00;92.40
45765;DHT22;31474;45.332;10.230;2023-05-07T15:20:32;27.10;92.70
45765;DHT22;31474;45.332;10.230;2023-05-07T15:22:58;27.00;92.10
45765;DHT22;31474;45.332;10.230;2023-05-07T15:25:24;27.00;92.30